Time;durP1;ratioP1;P1;durP2;ratioP2;P2;SDS_P1;SDS_P2;PMS_P1;PMS_P2;Temp;Humidity;BMP_temperature;BMP_pressure;BME280_temperature;BME280_humidity;BME280_pressure;Samples;Min_cycle;Max_cycle;Signal;HPM_P1;HPM_P2
2022/05/05 00:00:59;;;;;;;9.03;5.60;;;7.10;99.90;;;;;;5124234;27;20735;-59
2022/05/05 00:03:27;;;;;;;5.87;5.10;;;7.00;99.90;;;;;;5123043;27;20320;-58
2022/05/05 00:05:55;;;;;;;9.27;5.13;;;7.10;99.90;;;;;;5123656;27;20280;-58
2022/05/05 00:08:25;;;;;;;7.63;5.03;;;7.10;99.90;;;;;;5124206;27;20241;-57
2022/05/05 00:16:27;;;;;;;5.37;4.87;;;7.00;99.90;;;;;;5123254;27;20352;-59
2022/05/05 00:18:55;;;;;;;5.60;4.83;;;6.90;99.90;;;;;;5124105;27;20325;-58
2022/05/05 00:21:23;;;;;;;5.50;5.00;;;6.80;99.90;;;;;;5123666;27;20590;-59
2022/05/05 00:23:53;;;;;;;6.87;5.17;;;6.80;99.90;;;;;;5123035;27;20302;-58
2022/05/05 00:26:21;;;;;;;9.30;5.37;;;6.80;99.90;;;;;;5122959;27;20245;-60
2022/05/05 00:28:49;;;;;;;5.87;5.00;;;6.80;99.90;;;;;;5123890;27;20294;-59
2022/05/05 00:31:17;;;;;;;5.93;4.73;;;6.70;99.90;;;;;;5123713;27;20626;-59
2022/05/05 00:33:45;;;;;;;7.93;4.90;;;6.70;99.90;;;;;;5123204;27;20712;-59
2022/05/05 00:36:13;;;;;;;5.53;4.83;;;6.70;99.90;;;;;;5124177;27;20237;-59
2022/05/05 00:38:41;;;;;;;5.43;4.90;;;6.60;99.90;;;;;;5123487;27;20249;-59
2022/05/05 00:41:11;;;;;;;6.10;5.10;;;6.60;99.90;;;;;;5122805;27;20343;-59
2022/05/05 00:43:39;;;;;;;6.73;5.37;;;6.60;99.90;;;;;;5122947;27;20306;-59
2022/05/05 00:46:07;;;;;;;6.73;5.53;;;6.70;99.90;;;;;;5123308;27;20611;-59
2022/05/05 00:48:35;;;;;;;5.87;4.90;;;6.60;99.90;;;;;;5123250;27;20260;-59
2022/05/05 00:51:04;;;;;;;5.87;5.27;;;6.50;99.90;;;;;;5123440;27;20244;-59
2022/05/05 00:53:32;;;;;;;6.40;5.00;;;6.60;99.90;;;;;;5122515;27;20241;-59
2022/05/05 00:56:05;;;;;;;6.23;5.43;;;6.50;99.90;;;;;;5123222;27;20232;-59
2022/05/05 00:58:34;;;;;;;7.37;5.03;;;6.40;99.90;;;;;;5122880;27;20266;-58
2022/05/05 01:01:05;;;;;;;5.50;4.90;;;6.40;99.90;;;;;;5122193;27;20245;-58
2022/05/05 01:03:36;;;;;;;5.47;4.97;;;6.30;99.90;;;;;;5122295;27;20278;-59
2022/05/05 01:06:05;;;;;;;7.27;5.37;;;6.30;99.90;;;;;;5122949;27;20234;-58
2022/05/05 01:08:34;;;;;;;6.97;5.13;;;6.20;99.90;;;;;;5122829;27;20990;-58
2022/05/05 01:11:02;;;;;;;7.00;6.30;;;6.30;99.90;;;;;;5122966;27;20249;-59
2022/05/05 01:13:31;;;;;;;7.13;5.53;;;6.20;99.90;;;;;;5122593;27;20232;-57
2022/05/05 01:16:01;;;;;;;8.93;6.50;;;6.30;99.90;;;;;;5122667;27;20233;-59
2022/05/05 01:18:29;;;;;;;8.57;6.23;;;6.20;99.90;;;;;;5122478;27;20240;-58
2022/05/05 01:20:58;;;;;;;8.13;6.03;;;6.30;99.90;;;;;;5122875;27;20248;-58
2022/05/05 01:23:27;;;;;;;10.87;6.50;;;6.30;99.90;;;;;;5121519;27;20294;-58
2022/05/05 01:28:44;;;;;;;8.93;7.13;;;6.30;99.90;;;;;;5122766;27;20263;-60
2022/05/05 01:31:13;;;;;;;10.03;6.87;;;6.20;99.90;;;;;;5123065;27;20233;-59
2022/05/05 01:33:41;;;;;;;8.83;6.50;;;6.10;99.90;;;;;;5122041;27;20244;-59
2022/05/05 01:36:11;;;;;;;9.90;6.03;;;6.00;99.90;;;;;;5122013;27;20815;-60
2022/05/05 01:38:43;;;;;;;9.53;6.27;;;6.10;99.90;;;;;;5121809;27;20248;-59
2022/05/05 01:41:12;;;;;;;8.73;6.17;;;6.10;99.90;;;;;;5122204;27;20244;-59
2022/05/05 01:43:43;;;;;;;7.27;5.80;;;6.10;99.90;;;;;;5121662;27;20252;-59
2022/05/05 01:46:13;;;;;;;9.87;5.80;;;6.20;99.90;;;;;;5122599;27;20272;-58
2022/05/05 01:48:42;;;;;;;8.27;6.57;;;6.00;99.90;;;;;;5121803;27;20256;-59
2022/05/05 01:51:10;;;;;;;7.27;5.73;;;6.00;99.90;;;;;;5122320;27;20237;-58
2022/05/05 01:53:40;;;;;;;7.10;5.70;;;6.10;99.90;;;;;;5121746;27;20244;-59
2022/05/05 01:56:12;;;;;;;8.83;6.57;;;6.10;99.90;;;;;;5121919;27;20245;-60
2022/05/05 01:58:43;;;;;;;7.80;6.37;;;6.10;99.90;;;;;;5121722;27;20738;-59
2022/05/05 02:01:12;;;;;;;8.03;6.20;;;6.10;99.90;;;;;;5122264;27;20237;-59
2022/05/05 02:03:40;;;;;;;8.50;6.80;;;6.00;99.90;;;;;;5120969;27;20304;-58
2022/05/05 02:06:09;;;;;;;7.77;6.10;;;6.00;99.90;;;;;;5121879;27;20245;-59
2022/05/05 02:08:38;;;;;;;7.90;6.10;;;6.10;99.90;;;;;;5121851;27;20233;-59
2022/05/05 02:11:07;;;;;;;7.57;6.57;;;6.00;99.90;;;;;;5121262;27;20241;-58
2022/05/05 02:13:35;;;;;;;7.80;6.37;;;6.00;99.90;;;;;;5120931;27;20888;-59
2022/05/05 02:16:03;;;;;;;7.63;6.30;;;5.90;99.90;;;;;;5121659;27;20244;-58
2022/05/05 02:18:32;;;;;;;8.43;5.87;;;5.90;99.90;;;;;;5121368;27;20302;-59
2022/05/05 02:21:00;;;;;;;11.87;6.80;;;6.00;99.90;;;;;;5122000;27;20225;-58
2022/05/05 02:23:28;;;;;;;10.33;7.00;;;6.00;99.90;;;;;;5120404;27;20229;-58
2022/05/05 02:25:56;;;;;;;10.87;5.90;;;5.90;99.90;;;;;;5121374;27;20236;-58
2022/05/05 02:28:26;;;;;;;6.63;5.97;;;5.80;99.90;;;;;;5120977;27;20777;-59
2022/05/05 02:30:54;;;;;;;8.53;6.27;;;5.80;99.90;;;;;;5121340;27;20475;-58
2022/05/05 02:33:22;;;;;;;8.27;6.57;;;5.80;99.90;;;;;;5120909;27;20830;-59
2022/05/05 02:38:42;;;;;;;7.07;6.10;;;5.80;99.90;;;;;;5121209;27;20228;-59
2022/05/05 02:38:43;;;;;;;9.67;6.37;;;5.80;99.90;;;;;;5120489;27;20477;-59
2022/05/05 02:41:12;;;;;;;10.07;6.23;;;5.60;99.90;;;;;;5121542;27;20247;-59
2022/05/05 02:43:41;;;;;;;9.57;6.43;;;5.60;99.90;;;;;;5120992;27;20239;-58
2022/05/05 02:46:09;;;;;;;10.60;6.73;;;5.80;99.90;;;;;;5121589;27;20268;-59
2022/05/05 02:48:38;;;;;;;17.00;7.70;;;5.90;99.90;;;;;;5121355;27;20236;-57
2022/05/05 02:51:06;;;;;;;9.00;6.60;;;5.80;99.90;;;;;;5121273;27;20233;-58
2022/05/05 02:56:20;;;;;;;10.37;6.77;;;5.50;99.90;;;;;;5121139;27;20700;-59
2022/05/05 02:58:49;;;;;;;7.77;6.97;;;5.50;99.90;;;;;;5120834;28;20235;-59
2022/05/05 03:01:17;;;;;;;7.83;7.00;;;5.40;99.90;;;;;;5121807;27;20718;-59
2022/05/05 03:03:46;;;;;;;7.30;6.60;;;5.40;99.90;;;;;;5119552;27;20236;-59
2022/05/05 03:06:14;;;;;;;6.80;6.20;;;5.40;99.90;;;;;;5120945;27;20241;-60
2022/05/05 03:08:42;;;;;;;8.17;6.63;;;5.30;99.90;;;;;;5102700;27;21551;-59
2022/05/05 03:11:10;;;;;;;9.03;6.60;;;5.30;99.90;;;;;;5121598;27;20264;-60
2022/05/05 03:13:39;;;;;;;8.10;6.80;;;5.40;99.90;;;;;;5120489;27;20467;-58
2022/05/05 03:16:08;;;;;;;7.10;6.13;;;5.60;99.90;;;;;;5121177;27;20503;-58
2022/05/05 03:18:40;;;;;;;6.93;6.13;;;5.50;99.90;;;;;;5120738;27;20236;-59
2022/05/05 03:21:08;;;;;;;7.53;6.77;;;5.50;99.90;;;;;;5120739;27;20241;-58
2022/05/05 03:23:36;;;;;;;7.37;6.67;;;5.50;99.90;;;;;;5121734;27;20552;-58
2022/05/05 03:26:05;;;;;;;8.77;7.20;;;5.40;99.90;;;;;;5124157;27;20299;-59
2022/05/05 03:28:33;;;;;;;7.40;6.70;;;5.30;99.90;;;;;;5124313;27;20240;-58
2022/05/05 03:31:01;;;;;;;7.17;6.47;;;5.20;99.90;;;;;;5123610;27;20251;-57
2022/05/05 03:33:32;;;;;;;10.20;6.97;;;5.30;99.90;;;;;;5123673;27;20467;-58
2022/05/05 03:36:00;;;;;;;7.97;6.83;;;5.30;99.90;;;;;;5124228;27;20587;-58
2022/05/05 03:38:28;;;;;;;7.80;6.73;;;5.50;99.90;;;;;;5123329;27;20587;-58
2022/05/05 03:40:56;;;;;;;7.70;7.00;;;5.50;99.90;;;;;;5123952;27;20233;-58
2022/05/05 03:43:24;;;;;;;7.80;7.10;;;5.50;99.90;;;;;;5123606;27;20244;-59
2022/05/05 03:45:52;;;;;;;8.47;7.73;;;5.50;99.90;;;;;;5123379;27;20379;-58
2022/05/05 03:48:20;;;;;;;7.97;6.63;;;5.30;99.90;;;;;;5124613;27;20260;-58
2022/05/05 03:50:50;;;;;;;7.80;7.03;;;5.30;99.90;;;;;;5123917;27;20719;-58
2022/05/05 03:53:19;;;;;;;8.10;7.07;;;5.40;99.90;;;;;;5123582;27;20237;-58
2022/05/05 03:55:47;;;;;;;7.63;6.90;;;5.40;99.90;;;;;;5125637;27;20225;-58
2022/05/05 03:58:15;;;;;;;7.80;7.03;;;5.40;99.90;;;;;;5125184;27;20697;-58
2022/05/05 04:00:45;;;;;;;8.00;7.20;;;5.30;99.90;;;;;;5125544;27;20268;-59
2022/05/05 04:03:32;;;;;;;9.00;6.40;;;5.20;99.90;;;;;;5124871;27;20262;-59
2022/05/05 04:06:04;;;;;;;8.30;7.60;;;5.10;99.90;;;;;;5124018;27;20248;-57
2022/05/05 04:08:33;;;;;;;8.33;7.23;;;5.30;99.90;;;;;;5125034;27;20325;-59
2022/05/05 04:11:01;;;;;;;7.43;6.23;;;5.20;99.90;;;;;;5125119;27;20483;-58
2022/05/05 04:13:29;;;;;;;9.23;7.47;;;5.20;99.90;;;;;;5124460;27;20237;-58
2022/05/05 04:15:57;;;;;;;9.17;7.80;;;5.40;99.90;;;;;;5125370;27;20593;-58
2022/05/05 04:18:26;;;;;;;8.77;7.73;;;5.50;99.90;;;;;;5124714;27;20249;-57
2022/05/05 04:20:54;;;;;;;7.17;6.47;;;5.50;99.90;;;;;;5124817;27;20313;-58
2022/05/05 04:23:23;;;;;;;7.80;7.10;;;5.60;99.90;;;;;;5124769;27;20481;-59
2022/05/05 04:26:12;;;;;;;9.00;7.70;;;5.70;99.90;;;;;;5125189;27;20996;-58
2022/05/05 04:28:42;;;;;;;7.97;7.17;;;5.70;99.90;;;;;;5125062;27;20475;-59
2022/05/05 04:31:11;;;;;;;8.40;7.60;;;5.80;99.90;;;;;;5125216;27;20237;-58
2022/05/05 04:33:40;;;;;;;8.90;7.37;;;5.80;99.90;;;;;;5123957;27;20244;-57
2022/05/05 04:36:08;;;;;;;8.47;7.67;;;5.70;99.90;;;;;;5123396;27;20742;-59
2022/05/05 04:38:38;;;;;;;8.73;7.20;;;5.60;99.90;;;;;;5123830;27;20244;-58
2022/05/05 04:41:06;;;;;;;12.10;8.07;;;5.60;99.90;;;;;;5123769;27;20478;-58
2022/05/05 04:43:35;;;;;;;10.33;7.47;;;5.60;99.90;;;;;;5122608;27;20712;-58
2022/05/05 04:46:03;;;;;;;9.60;7.43;;;5.60;99.90;;;;;;5123502;27;20237;-59
2022/05/05 04:48:31;;;;;;;12.93;9.43;;;5.60;99.90;;;;;;5123384;27;20840;-59
2022/05/05 04:50:59;;;;;;;15.60;10.20;;;6.00;99.90;;;;;;5124179;27;20237;-58
2022/05/05 04:53:27;;;;;;;13.60;10.13;;;6.20;99.90;;;;;;5124238;27;20229;-58
2022/05/05 04:55:57;;;;;;;10.77;9.10;;;6.30;99.90;;;;;;5124477;27;20323;-59
2022/05/05 04:58:25;;;;;;;9.97;8.30;;;6.00;99.90;;;;;;5124422;27;20233;-59
2022/05/05 05:00:54;;;;;;;9.70;8.70;;;6.00;99.90;;;;;;5124023;27;20787;-59
2022/05/05 05:03:35;;;;;;;8.93;7.93;;;6.00;99.90;;;;;;5122089;27;20255;-59
2022/05/05 05:06:04;;;;;;;9.10;8.10;;;6.10;99.90;;;;;;5122490;27;20485;-59
2022/05/05 05:08:33;;;;;;;9.03;8.13;;;6.20;99.90;;;;;;5123182;27;20233;-59
2022/05/05 05:11:03;;;;;;;8.97;8.07;;;6.30;99.90;;;;;;5123156;27;20245;-59
2022/05/05 05:13:31;;;;;;;9.40;8.50;;;6.40;99.90;;;;;;5123689;27;20241;-59
2022/05/05 05:15:59;;;;;;;9.23;7.67;;;6.60;99.90;;;;;;5123767;27;20727;-58
2022/05/05 05:18:28;;;;;;;10.00;8.17;;;6.70;99.90;;;;;;5123458;27;20241;-58
2022/05/05 05:20:56;;;;;;;8.93;8.03;;;6.80;99.90;;;;;;5122359;27;20331;-60
2022/05/05 05:23:24;;;;;;;9.40;8.43;;;7.00;99.90;;;;;;5122505;27;20573;-58
2022/05/05 05:25:52;;;;;;;9.30;8.40;;;7.10;99.90;;;;;;5121258;27;20320;-59
2022/05/05 05:28:25;;;;;;;9.30;8.40;;;7.20;99.90;;;;;;5122622;27;20233;-59
2022/05/05 05:30:53;;;;;;;8.43;7.63;;;7.30;99.90;;;;;;5122695;27;20237;-59
2022/05/05 05:33:21;;;;;;;8.93;7.97;;;7.40;99.90;;;;;;5121714;27;20297;-58
2022/05/05 05:35:49;;;;;;;8.77;8.00;;;7.60;99.90;;;;;;5122032;27;20921;-58
2022/05/05 05:38:19;;;;;;;9.90;8.27;;;7.70;99.90;;;;;;5122481;27;20235;-59
2022/05/05 05:40:48;;;;;;;9.77;8.77;;;7.90;99.90;;;;;;5122208;27;20664;-59
2022/05/05 05:43:16;;;;;;;11.60;9.17;;;8.10;99.90;;;;;;5121588;27;20236;-58
2022/05/05 05:45:46;;;;;;;9.77;8.77;;;8.30;99.90;;;;;;5121421;27;20237;-59
2022/05/05 05:48:14;;;;;;;9.57;8.63;;;8.40;99.90;;;;;;5121706;27;20716;-59
2022/05/05 05:50:42;;;;;;;11.30;8.53;;;8.40;99.90;;;;;;5121862;27;20234;-60
2022/05/05 05:53:11;;;;;;;11.60;8.97;;;8.50;99.90;;;;;;5121394;27;20251;-59
2022/05/05 05:55:39;;;;;;;10.83;9.73;;;8.50;99.90;;;;;;5121587;27;20241;-60
2022/05/05 05:58:08;;;;;;;12.13;9.70;;;8.60;99.90;;;;;;5122642;27;20519;-59
2022/05/05 06:00:38;;;;;;;10.77;9.60;;;8.70;99.90;;;;;;5120445;27;20229;-60
2022/05/05 06:05:53;;;;;;;10.27;9.10;;;8.90;99.90;;;;;;5121287;27;20719;-59
2022/05/05 06:08:21;;;;;;;10.67;9.60;;;9.00;99.90;;;;;;5122484;27;20241;-60
2022/05/05 06:10:50;;;;;;;10.50;9.40;;;9.10;99.90;;;;;;5120444;27;20243;-60
2022/05/05 06:13:23;;;;;;;14.47;9.83;;;9.20;99.90;;;;;;5119924;27;20266;-60
2022/05/05 06:15:51;;;;;;;9.73;8.73;;;9.40;99.90;;;;;;5120174;27;20241;-59
2022/05/05 06:18:20;;;;;;;9.60;8.67;;;9.50;99.90;;;;;;5122274;27;20354;-59
2022/05/05 06:20:48;;;;;;;10.20;8.77;;;9.70;99.90;;;;;;5121764;27;20243;-59
2022/05/05 06:23:17;;;;;;;11.87;8.00;;;9.80;99.90;;;;;;5116699;27;21064;-59
2022/05/05 06:25:45;;;;;;;8.80;7.90;;;10.00;99.90;;;;;;5120328;27;20258;-59
2022/05/05 06:28:13;;;;;;;8.70;7.87;;;10.30;99.90;;;;;;5119727;27;20283;-60
2022/05/05 06:30:42;;;;;;;7.83;6.63;;;10.60;99.90;;;;;;5120739;27;20249;-60
2022/05/05 06:33:10;;;;;;;7.93;6.93;;;10.90;99.90;;;;;;5120646;27;20378;-59
2022/05/05 06:35:39;;;;;;;7.67;6.80;;;11.20;99.90;;;;;;5121575;27;20299;-61
2022/05/05 06:38:07;;;;;;;7.40;6.23;;;11.30;99.90;;;;;;5121592;27;20338;-60
2022/05/05 06:40:35;;;;;;;6.73;5.30;;;11.70;99.90;;;;;;5120641;27;20246;-60
2022/05/05 06:43:04;;;;;;;7.13;4.60;;;11.90;99.90;;;;;;5121356;27;20718;-60
2022/05/05 06:45:32;;;;;;;7.27;5.47;;;11.90;99.90;;;;;;5121979;27;20234;-59
2022/05/05 06:48:01;;;;;;;7.73;4.30;;;12.10;99.90;;;;;;5122898;27;20247;-60
2022/05/05 06:50:30;;;;;;;5.73;3.83;;;12.20;99.90;;;;;;5122853;27;20338;-60
2022/05/05 06:53:00;;;;;;;5.20;3.60;;;12.30;99.90;;;;;;5122029;27;20247;-58
2022/05/05 06:55:28;;;;;;;8.57;4.17;;;12.40;99.90;;;;;;5123331;27;20358;-60
2022/05/05 06:57:56;;;;;;;4.90;3.23;;;12.50;99.90;;;;;;5123193;27;20326;-59
2022/05/05 07:01:51;;;;;;;4.73;3.10;;;12.70;99.90;;;;;;5125120;27;20244;-59
2022/05/05 07:03:12;;;;;;;5.63;3.40;;;12.80;99.90;;;;;;5123601;27;20245;-61
2022/05/05 07:05:40;;;;;;;4.77;2.90;;;13.10;99.90;;;;;;5124944;27;20235;-58
2022/05/05 07:08:09;;;;;;;4.70;2.63;;;13.20;99.90;;;;;;5125776;27;20237;-61
2022/05/05 07:10:55;;;;;;;6.07;2.70;;;13.50;99.90;;;;;;5124590;27;20236;-60
2022/05/05 07:13:24;;;;;;;5.93;2.57;;;13.80;99.90;;;;;;5124354;27;20852;-60
2022/05/05 07:15:53;;;;;;;4.63;2.03;;;14.10;99.90;;;;;;5126159;27;20274;-60
2022/05/05 07:18:21;;;;;;;4.97;2.17;;;14.30;99.90;;;;;;5126002;27;20233;-59
2022/05/05 07:20:50;;;;;;;6.80;2.10;;;14.60;99.90;;;;;;5126212;27;20251;-61
2022/05/05 07:23:19;;;;;;;5.50;2.10;;;14.80;99.90;;;;;;5110892;27;20229;-60
2022/05/05 07:25:47;;;;;;;5.83;2.30;;;14.80;99.90;;;;;;5126142;27;20286;-59
2022/05/05 07:28:16;;;;;;;7.00;2.60;;;14.90;99.90;;;;;;5126458;27;20233;-59
2022/05/05 07:30:45;;;;;;;3.83;2.60;;;15.00;99.90;;;;;;5125771;27;20316;-60
2022/05/05 07:33:13;;;;;;;4.03;2.40;;;14.80;99.90;;;;;;5125610;27;20241;-60
2022/05/05 07:35:42;;;;;;;4.30;2.30;;;14.90;99.90;;;;;;5125470;27;20798;-59
2022/05/05 07:38:10;;;;;;;6.43;2.60;;;15.10;99.90;;;;;;5125263;27;20233;-59
2022/05/05 07:40:39;;;;;;;4.57;2.97;;;15.30;99.90;;;;;;5125712;27;20232;-60
2022/05/05 07:43:08;;;;;;;4.10;2.40;;;15.50;99.90;;;;;;5124681;27;20298;-59
2022/05/05 07:45:36;;;;;;;7.43;2.40;;;15.80;99.90;;;;;;5124369;27;20229;-60
2022/05/05 07:48:05;;;;;;;5.73;2.87;;;16.10;99.90;;;;;;5124722;27;20233;-59
2022/05/05 07:50:33;;;;;;;4.57;2.40;;;16.00;99.90;;;;;;5124796;27;20294;-58
2022/05/05 07:53:01;;;;;;;8.33;2.90;;;15.90;99.90;;;;;;5124479;27;20240;-59
2022/05/05 07:55:29;;;;;;;5.13;2.50;;;16.10;99.90;;;;;;5125898;27;20316;-60
2022/05/05 07:57:59;;;;;;;5.87;2.20;;;16.30;99.90;;;;;;5127665;27;20225;-59
2022/05/05 08:00:27;;;;;;;4.57;2.03;;;16.60;99.90;;;;;;5125795;27;20865;-58
2022/05/05 08:02:56;;;;;;;4.27;1.80;;;16.60;99.90;;;;;;5125150;27;20237;-59
2022/05/05 08:05:25;;;;;;;3.97;2.00;;;16.30;99.90;;;;;;5126143;27;20233;-61
2022/05/05 08:07:53;;;;;;;6.03;2.20;;;16.40;99.90;;;;;;5124831;27;20237;-59
2022/05/05 08:10:22;;;;;;;5.07;2.40;;;16.20;99.90;;;;;;5124938;27;20245;-58
2022/05/05 08:12:50;;;;;;;5.47;2.27;;;16.10;99.90;;;;;;5125138;27;20285;-60
2022/05/05 08:15:20;;;;;;;5.60;1.93;;;16.00;99.90;;;;;;5125249;27;20328;-60
2022/05/05 08:17:48;;;;;;;3.47;1.77;;;15.90;99.90;;;;;;5125313;27;20769;-59
2022/05/05 08:20:17;;;;;;;4.23;2.07;;;15.90;99.90;;;;;;5125641;27;20241;-59
2022/05/05 08:22:45;;;;;;;5.23;1.90;;;16.10;99.90;;;;;;5124562;27;20237;-59
2022/05/05 08:30:47;;;;;;;6.00;2.00;;;16.40;99.90;;;;;;5128198;27;20216;-58
2022/05/05 08:33:15;;;;;;;4.63;1.80;;;16.50;99.90;;;;;;5132647;27;20286;-58
2022/05/05 08:35:44;;;;;;;5.67;2.00;;;16.80;99.90;;;;;;5132116;27;20233;-59
2022/05/05 08:38:13;;;;;;;7.17;2.07;;;17.00;99.90;;;;;;5129718;27;20237;-60
2022/05/05 08:40:42;;;;;;;5.17;2.13;;;17.10;99.90;;;;;;5121173;27;20913;-61
2022/05/05 08:43:10;;;;;;;5.13;2.40;;;16.90;99.90;;;;;;5124790;27;20294;-59
2022/05/05 08:45:39;;;;;;;4.90;2.30;;;16.60;99.90;;;;;;5126932;27;20209;-60
2022/05/05 08:48:11;;;;;;;3.93;2.13;;;16.70;99.90;;;;;;5124369;27;20708;-60
2022/05/05 08:50:44;;;;;;;4.50;2.10;;;17.00;99.90;;;;;;5123204;27;20240;-59
2022/05/05 08:53:15;;;;;;;3.80;2.00;;;17.20;99.90;;;;;;5127300;27;20237;-58
2022/05/05 08:55:45;;;;;;;5.83;2.40;;;17.10;99.90;;;;;;5125509;27;20739;-61
2022/05/05 08:58:13;;;;;;;5.13;2.57;;;16.80;99.90;;;;;;5123729;27;20241;-60
2022/05/05 09:00:42;;;;;;;2.73;2.07;;;16.90;99.90;;;;;;5123286;27;20237;-60
2022/05/05 09:03:12;;;;;;;6.97;2.70;;;17.00;99.90;;;;;;5122353;27;20241;-60
2022/05/05 09:05:50;;;;;;;7.50;2.47;;;16.90;99.90;;;;;;5123258;27;20258;-58
2022/05/05 09:08:30;;;;;;;5.53;2.53;;;17.10;99.90;;;;;;5123334;27;20237;-61
2022/05/05 09:10:59;;;;;;;5.27;2.40;;;17.50;99.90;;;;;;5123458;27;20251;-61
2022/05/05 09:13:29;;;;;;;4.77;2.90;;;18.00;99.90;;;;;;5121794;27;20591;-60
2022/05/05 09:15:58;;;;;;;8.50;2.73;;;18.00;99.90;;;;;;5123594;27;20563;-59
2022/05/05 09:18:30;;;;;;;6.47;3.03;;;17.50;99.90;;;;;;5123310;27;20784;-61
2022/05/05 09:21:01;;;;;;;5.23;2.73;;;17.40;99.90;;;;;;5123214;27;20250;-59
2022/05/05 09:23:34;;;;;;;4.70;2.50;;;17.90;99.90;;;;;;5123456;27;20243;-60
2022/05/05 09:26:04;;;;;;;5.27;2.50;;;18.10;99.90;;;;;;5123823;27;20361;-59
2022/05/05 09:28:35;;;;;;;4.63;2.20;;;18.10;99.90;;;;;;5124532;27;20240;-59
2022/05/05 09:31:06;;;;;;;7.37;2.67;;;18.40;99.90;;;;;;5124254;27;20252;-60
2022/05/05 09:33:40;;;;;;;4.83;2.20;;;18.50;99.90;;;;;;5123346;27;20230;-60
2022/05/05 09:36:10;;;;;;;5.47;2.90;;;18.80;99.90;;;;;;5123979;27;20782;-59
2022/05/05 09:38:50;;;;;;;3.83;2.40;;;18.90;99.90;;;;;;5122928;27;20228;-61
2022/05/05 09:41:18;;;;;;;4.97;2.50;;;19.40;99.90;;;;;;5122945;27;20274;-60
2022/05/05 09:43:46;;;;;;;5.57;2.67;;;19.80;99.90;;;;;;5122018;27;20242;-58
2022/05/05 09:46:31;;;;;;;5.20;2.10;;;20.10;99.90;;;;;;5118737;27;20239;-58
2022/05/05 09:49:09;;;;;;;4.23;2.30;;;20.50;99.90;;;;;;5121981;27;20323;-60
2022/05/05 09:51:40;;;;;;;4.03;2.30;;;21.10;99.90;;;;;;5122447;27;20244;-59
2022/05/05 09:59:48;;;;;;;3.40;2.00;;;21.60;99.90;;;;;;5121851;27;20328;-59
2022/05/05 10:04:00;;;;;;;3.37;2.00;;;22.00;99.90;;;;;;5121343;27;20621;-60
2022/05/05 10:05:15;;;;;;;4.30;2.17;;;22.10;99.90;;;;;;5121589;27;20289;-60
2022/05/05 10:07:45;;;;;;;4.70;2.07;;;21.60;98.50;;;;;;5121847;27;20650;-60
2022/05/05 10:10:16;;;;;;;4.40;2.20;;;20.80;98.90;;;;;;5122185;27;20244;-61
2022/05/05 10:12:46;;;;;;;3.33;2.03;;;20.60;99.00;;;;;;5120468;27;20805;-60
2022/05/05 10:15:14;;;;;;;2.57;1.67;;;20.60;98.90;;;;;;5121777;27;20314;-60
2022/05/05 10:17:45;;;;;;;4.27;1.87;;;20.90;99.60;;;;;;5122229;27;20330;-60
2022/05/05 10:20:15;;;;;;;3.90;1.80;;;21.30;98.20;;;;;;5123109;27;20289;-60
2022/05/05 10:22:51;;;;;;;3.10;1.67;;;20.50;97.20;;;;;;5122091;27;20317;-60
2022/05/05 10:25:25;;;;;;;4.00;1.90;;;20.60;97.60;;;;;;5123450;27;20323;-60
2022/05/05 10:27:54;;;;;;;3.23;1.60;;;20.80;97.90;;;;;;5123430;27;20268;-59
2022/05/05 10:30:34;;;;;;;3.63;2.00;;;20.80;97.40;;;;;;5123114;27;20653;-59
2022/05/05 10:33:03;;;;;;;3.47;1.50;;;20.90;98.10;;;;;;5121652;27;20233;-60
2022/05/05 10:35:45;;;;;;;4.83;2.30;;;21.30;99.00;;;;;;5121256;27;20244;-60
2022/05/05 10:38:39;;;;;;;4.77;1.90;;;21.20;97.30;;;;;;5121979;27;20237;-60
2022/05/05 10:41:35;;;;;;;4.10;1.80;;;21.10;98.30;;;;;;5121593;27;20271;-60
2022/05/05 10:44:22;;;;;;;4.63;1.60;;;21.40;97.70;;;;;;5120818;27;20779;-61
2022/05/05 10:46:55;;;;;;;3.30;1.83;;;21.80;98.70;;;;;;5121563;27;20247;-60
2022/05/05 10:49:48;;;;;;;3.10;1.50;;;22.20;98.10;;;;;;5122900;27;20303;-59
2022/05/05 10:52:31;;;;;;;6.27;2.07;;;22.50;96.80;;;;;;5122114;27;20344;-60
2022/05/05 10:55:25;;;;;;;3.30;1.97;;;22.40;96.80;;;;;;5122867;27;20248;-61
2022/05/05 10:58:33;;;;;;;2.83;1.47;;;22.00;96.60;;;;;;5122494;27;20239;-61
2022/05/05 11:01:09;;;;;;;4.20;1.73;;;21.80;96.10;;;;;;5121826;27;20243;-61
2022/05/05 11:03:37;;;;;;;3.57;1.60;;;21.40;96.00;;;;;;5120331;27;20228;-58
2022/05/05 11:06:18;;;;;;;3.47;1.63;;;21.80;96.30;;;;;;5121907;27;20237;-61
2022/05/05 11:08:54;;;;;;;4.03;1.50;;;21.40;96.00;;;;;;5121776;28;20248;-59
2022/05/05 11:11:42;;;;;;;4.93;1.40;;;21.90;97.60;;;;;;5117565;27;20278;-59
2022/05/05 11:22:46;;;;;;;3.57;1.87;;;22.70;95.40;;;;;;5098216;28;20317;-59
2022/05/05 11:25:17;;;;;;;3.10;1.60;;;22.00;95.30;;;;;;5121588;27;20340;-60
2022/05/05 11:27:46;;;;;;;4.10;1.80;;;22.20;97.00;;;;;;5120868;27;20664;-59
2022/05/05 11:30:15;;;;;;;4.30;1.90;;;22.50;95.90;;;;;;5121043;27;20240;-61
2022/05/05 11:32:44;;;;;;;5.00;1.73;;;22.70;94.90;;;;;;5118164;27;20236;-61
2022/05/05 11:35:32;;;;;;;2.43;1.50;;;22.80;96.40;;;;;;5120915;28;20241;-60
2022/05/05 11:38:01;;;;;;;4.30;2.20;;;23.10;95.40;;;;;;5121607;27;20265;-61
2022/05/05 11:40:37;;;;;;;5.03;1.97;;;22.70;96.00;;;;;;5121588;27;20236;-60
2022/05/05 11:45:54;;;;;;;2.90;1.50;;;22.90;95.70;;;;;;5126072;27;20936;-61
2022/05/05 11:48:23;;;;;;;7.17;2.40;;;23.30;95.90;;;;;;5126295;27;20677;-59
2022/05/05 11:51:06;;;;;;;6.63;2.10;;;22.80;95.30;;;;;;5125508;27;20584;-61
2022/05/05 11:53:36;;;;;;;4.57;2.33;;;22.50;95.30;;;;;;5123013;27;20784;-59
2022/05/05 11:56:12;;;;;;;5.17;1.93;;;21.60;95.60;;;;;;5124909;27;20273;-61
2022/05/05 12:01:39;;;;;;;4.70;2.60;;;21.90;96.90;;;;;;5108132;27;20237;-59
2022/05/05 12:04:10;;;;;;;4.27;2.40;;;21.30;97.00;;;;;;5123478;27;20244;-59
2022/05/05 12:06:39;;;;;;;5.17;2.30;;;21.10;98.00;;;;;;5124223;27;20268;-60
2022/05/05 12:09:08;;;;;;;3.97;2.10;;;21.10;97.90;;;;;;5124249;27;20710;-59
2022/05/05 12:11:38;;;;;;;5.70;2.97;;;21.00;98.60;;;;;;5123715;27;20229;-60
2022/05/05 12:14:09;;;;;;;4.03;2.70;;;20.90;97.60;;;;;;5123710;27;20243;-60
2022/05/05 12:16:38;;;;;;;4.23;3.03;;;20.70;98.60;;;;;;5124608;27;20898;-60
2022/05/05 12:19:13;;;;;;;4.73;3.10;;;20.60;98.80;;;;;;5124794;27;20629;-60
2022/05/05 12:22:03;;;;;;;5.30;3.50;;;20.30;98.70;;;;;;5123798;27;20355;-62
2022/05/05 12:24:32;;;;;;;3.90;3.37;;;20.00;99.30;;;;;;5124384;27;20248;-61
2022/05/05 12:27:09;;;;;;;5.57;3.03;;;19.90;99.70;;;;;;5123624;27;20684;-59
2022/05/05 12:29:39;;;;;;;5.27;3.03;;;20.00;99.90;;;;;;5123833;27;20254;-61
2022/05/05 12:32:10;;;;;;;4.70;3.10;;;20.40;99.90;;;;;;5123589;27;20244;-61
2022/05/05 12:34:39;;;;;;;3.80;3.10;;;20.70;99.80;;;;;;5124084;27;20307;-59
2022/05/05 12:37:14;;;;;;;5.07;3.60;;;20.80;99.90;;;;;;5124090;27;20315;-60
2022/05/05 12:39:53;;;;;;;7.23;4.03;;;20.70;99.90;;;;;;5124011;27;20247;-60
2022/05/05 12:42:23;;;;;;;4.10;3.40;;;20.30;99.80;;;;;;5123295;27;20244;-59
2022/05/05 12:44:52;;;;;;;5.17;3.43;;;20.10;99.90;;;;;;5123815;27;20799;-60
2022/05/05 12:47:25;;;;;;;6.47;3.80;;;19.80;99.90;;;;;;5124254;27;21696;-61
2022/05/05 12:49:53;;;;;;;6.50;3.70;;;19.60;99.90;;;;;;5124007;27;20770;-61
2022/05/05 13:01:03;;;;;;;4.63;3.40;;;20.40;99.90;;;;;;5123238;27;20327;-59
2022/05/05 13:03:46;;;;;;;5.83;3.13;;;20.00;99.90;;;;;;5122667;27;20744;-59
2022/05/05 13:06:14;;;;;;;6.70;3.30;;;19.70;99.90;;;;;;5123708;27;20330;-60
2022/05/05 13:08:50;;;;;;;5.23;3.40;;;19.40;99.90;;;;;;5122802;27;20248;-61
2022/05/05 13:11:20;;;;;;;5.00;3.40;;;19.10;99.90;;;;;;5123765;27;20291;-62
2022/05/05 13:13:51;;;;;;;4.43;3.77;;;19.20;99.90;;;;;;5122208;27;20264;-59
2022/05/05 13:16:27;;;;;;;4.67;3.70;;;19.40;99.90;;;;;;5123061;27;20944;-61
2022/05/05 13:18:57;;;;;;;5.70;3.60;;;19.20;99.90;;;;;;5123001;27;20232;-59
2022/05/05 13:21:27;;;;;;;5.87;3.87;;;19.40;99.90;;;;;;5100775;28;20298;-60
2022/05/05 13:23:55;;;;;;;5.67;3.93;;;19.40;99.90;;;;;;5102128;28;20252;-62
2022/05/05 13:26:23;;;;;;;5.60;4.07;;;19.40;99.90;;;;;;5103272;28;20241;-59
2022/05/05 13:28:53;;;;;;;6.90;3.30;;;19.30;99.90;;;;;;5111822;28;20240;-59
2022/05/05 13:31:21;;;;;;;6.17;4.17;;;19.50;99.90;;;;;;5111396;27;20589;-59
2022/05/05 13:33:49;;;;;;;7.33;4.90;;;19.60;99.90;;;;;;5110319;28;20335;-59
2022/05/05 13:36:18;;;;;;;8.47;4.90;;;19.20;99.90;;;;;;5112143;27;20595;-59
2022/05/05 13:38:46;;;;;;;7.77;4.90;;;19.10;99.90;;;;;;5111843;27;20239;-59
2022/05/05 13:41:31;;;;;;;6.80;5.10;;;19.50;99.90;;;;;;5128709;27;20244;-60
2022/05/05 13:44:01;;;;;;;5.70;4.47;;;19.40;99.90;;;;;;5131199;27;20289;-59
2022/05/05 13:46:29;;;;;;;6.80;4.40;;;19.60;99.90;;;;;;5132143;27;20258;-59
2022/05/05 13:48:58;;;;;;;6.77;5.10;;;19.70;99.90;;;;;;5132443;27;20232;-59
2022/05/05 13:51:26;;;;;;;7.77;5.33;;;19.60;99.90;;;;;;5111908;28;20249;-59
2022/05/05 13:53:54;;;;;;;8.00;5.60;;;19.60;99.90;;;;;;5109394;27;20374;-59
2022/05/05 13:56:22;;;;;;;6.40;4.97;;;19.80;99.90;;;;;;5111868;27;20260;-59